createdAt,value
2022-12-17T00:01:41.787Z,-8.30
2022-12-17T00:04:27.114Z,-8.20
2022-12-17T00:07:12.792Z,-8.40
2022-12-17T00:09:58.286Z,-8.30
2022-12-17T00:12:43.730Z,-8.30
2022-12-17T00:15:30.542Z,-8.20
2022-12-17T00:18:21.553Z,-8.10
2022-12-17T00:21:23.062Z,-8.10
2022-12-17T00:24:08.639Z,-8.10
2022-12-17T00:26:54.646Z,-8.00
2022-12-17T00:29:41.819Z,-8.00
2022-12-17T00:32:37.153Z,-8.00
2022-12-17T00:35:23.144Z,-7.90
2022-12-17T00:38:08.660Z,-8.00
2022-12-17T00:40:54.018Z,-8.00
2022-12-17T00:43:39.879Z,-8.10
2022-12-17T00:46:22.180Z,-8.00
2022-12-17T00:51:55.635Z,-7.90
2022-12-17T00:54:41.934Z,-7.90
2022-12-17T00:57:27.630Z,-7.80
2022-12-17T01:00:12.968Z,-7.70
2022-12-17T01:02:58.688Z,-7.60
2022-12-17T01:05:46.332Z,-7.60
2022-12-17T01:08:33.717Z,-7.50
2022-12-17T01:14:06.422Z,-7.50
2022-12-17T01:16:52.242Z,-6.90
2022-12-17T01:19:38.214Z,-7.50
2022-12-17T01:22:24.984Z,-7.40
2022-12-17T01:25:10.276Z,-7.40
2022-12-17T01:27:55.731Z,-7.40
2022-12-17T01:30:41.729Z,-5.70
2022-12-17T01:33:29.730Z,-7.40
2022-12-17T01:36:15.913Z,-5.40
2022-12-17T01:39:03.273Z,-7.50
2022-12-17T01:41:49.241Z,-7.60
2022-12-17T01:45:10.957Z,-7.50
2022-12-17T01:56:22.052Z,-7.70
2022-12-17T01:59:07.549Z,-7.80
2022-12-17T02:01:54.488Z,-7.80
2022-12-17T02:04:42.246Z,-7.80
2022-12-17T02:10:34.646Z,-7.80
2022-12-17T02:13:27.887Z,-7.80
2022-12-17T02:16:17.540Z,-7.80
2022-12-17T02:19:09.125Z,-7.90
2022-12-17T02:21:58.080Z,-8.00
2022-12-17T02:27:34.850Z,-8.10
2022-12-17T02:30:25.119Z,-8.30
2022-12-17T02:33:11.310Z,-8.20
2022-12-17T02:36:01.549Z,-8.50
2022-12-17T02:38:49.001Z,-8.50
2022-12-17T02:41:36.939Z,-8.70
2022-12-17T02:44:25.908Z,-8.60
2022-12-17T02:47:12.826Z,-8.50
2022-12-17T02:49:58.482Z,-8.60
2022-12-17T02:52:44.689Z,-8.50
2022-12-17T02:58:15.928Z,-7.60
2022-12-17T03:01:02.732Z,-8.50
2022-12-17T03:03:50.400Z,-8.50
2022-12-17T03:06:36.544Z,-8.50
2022-12-17T03:09:21.881Z,-8.50
2022-12-17T03:12:07.463Z,-8.60
2022-12-17T03:14:53.047Z,-8.50
2022-12-17T03:17:39.694Z,-8.40
2022-12-17T03:20:26.607Z,-8.20
2022-12-17T03:23:11.998Z,-8.10
2022-12-17T03:28:43.280Z,-7.80
2022-12-17T03:31:28.825Z,-7.60
2022-12-17T03:34:15.557Z,-7.50
2022-12-17T03:37:01.002Z,-7.40
2022-12-17T03:39:46.673Z,-7.20
2022-12-17T03:42:32.160Z,-7.10
2022-12-17T03:45:26.352Z,-6.90
2022-12-17T03:48:22.551Z,-6.90
2022-12-17T03:51:09.915Z,-6.70
2022-12-17T03:53:55.281Z,-6.50
2022-12-17T03:56:40.694Z,-6.50
2022-12-17T03:59:26.468Z,-6.30
2022-12-17T04:02:12.241Z,-6.30
2022-12-17T04:07:45.304Z,-6.20
2022-12-17T04:13:17.060Z,-6.00
2022-12-17T04:16:02.583Z,-5.90
2022-12-17T04:18:48.123Z,-5.90
2022-12-17T04:21:33.651Z,-5.80
2022-12-17T04:29:52.660Z,-5.70
2022-12-17T04:32:38.101Z,-5.70
2022-12-17T04:40:56.566Z,-5.70
2022-12-17T04:43:42.012Z,-5.60
2022-12-17T04:46:27.569Z,-5.50
2022-12-17T04:49:13.024Z,-5.50
2022-12-17T04:51:58.681Z,-5.50
2022-12-17T04:54:44.404Z,-5.40
2022-12-17T04:57:31.169Z,-5.40
2022-12-17T05:00:16.852Z,-5.40
2022-12-17T05:03:02.821Z,-5.40
2022-12-17T05:08:39.663Z,-5.40
2022-12-17T05:14:13.872Z,-5.30
2022-12-17T05:16:59.574Z,-5.40
2022-12-17T05:19:45.057Z,-5.40
2022-12-17T05:25:16.521Z,-5.40
2022-12-17T05:28:01.971Z,-5.40
2022-12-17T05:42:06.818Z,-5.60
2022-12-17T05:44:52.347Z,-5.50
2022-12-17T05:47:50.959Z,-5.50
2022-12-17T05:50:36.670Z,-5.60
2022-12-17T05:53:38.338Z,-5.50
2022-12-17T05:56:24.502Z,-5.50
2022-12-17T05:59:10.214Z,-5.60
2022-12-17T06:01:55.843Z,-5.70
2022-12-17T06:04:42.564Z,-5.70
2022-12-17T06:10:26.288Z,-5.80
2022-12-17T06:13:15.148Z,-5.80
2022-12-17T06:16:00.806Z,-5.80
2022-12-17T06:18:46.367Z,-5.80
2022-12-17T06:21:33.095Z,-5.90
2022-12-17T06:24:18.877Z,-5.80
2022-12-17T06:29:50.310Z,-5.90
2022-12-17T06:32:36.100Z,-5.90
2022-12-17T06:35:22.052Z,-5.90
2022-12-17T06:38:16.775Z,-5.90
2022-12-17T06:41:02.489Z,-6.00
2022-12-17T06:43:47.934Z,-6.00
2022-12-17T06:46:33.479Z,-6.20
2022-12-17T06:49:19.008Z,-6.10
2022-12-17T06:57:40.817Z,-6.20
2022-12-17T07:00:29.730Z,-6.10
2022-12-17T07:03:15.815Z,-6.20
2022-12-17T07:06:01.945Z,-6.40
2022-12-17T07:08:47.525Z,-6.40
2022-12-17T07:11:34.525Z,-6.20
2022-12-17T07:14:19.994Z,-6.40
2022-12-17T07:17:14.119Z,-6.50
2022-12-17T07:20:01.906Z,-6.50
2022-12-17T07:22:47.624Z,-6.40
2022-12-17T07:25:46.366Z,-6.40
2022-12-17T07:28:33.365Z,-6.50
2022-12-17T07:34:16.583Z,-6.40
2022-12-17T07:37:02.059Z,-6.50
2022-12-17T07:39:47.678Z,-6.40
2022-12-17T07:45:20.210Z,-6.30
2022-12-17T07:50:55.227Z,-6.40
2022-12-17T07:59:20.667Z,-6.20
2022-12-17T08:02:07.808Z,-6.20
2022-12-17T08:04:53.310Z,-6.20
2022-12-17T08:07:38.969Z,-6.10
2022-12-17T08:10:25.500Z,-6.10
2022-12-17T08:13:14.538Z,-6.10
2022-12-17T08:16:00.775Z,-6.00
2022-12-17T08:18:44.186Z,-6.00
2022-12-17T08:21:26.250Z,-5.90
2022-12-17T08:24:17.010Z,-6.00
2022-12-17T08:29:48.302Z,-6.00
2022-12-17T08:35:21.190Z,-5.90
2022-12-17T08:38:06.999Z,-5.80
2022-12-17T08:43:39.353Z,-5.80
2022-12-17T08:46:25.407Z,-5.90
2022-12-17T08:49:10.810Z,-5.90
2022-12-17T08:57:32.224Z,-5.90
2022-12-17T09:00:18.725Z,-5.90
2022-12-17T09:03:04.418Z,-5.90
2022-12-17T09:08:37.495Z,-6.00
2022-12-17T09:11:23.281Z,-6.00
2022-12-17T09:19:40.079Z,-5.70
2022-12-17T09:22:25.517Z,-5.70
2022-12-17T09:25:17.665Z,-5.70
2022-12-17T09:28:03.476Z,-5.60
2022-12-17T09:30:54.577Z,-5.50
2022-12-17T09:36:27.503Z,-5.50
2022-12-17T09:39:13.190Z,-5.50
2022-12-17T09:42:06.292Z,-5.60
2022-12-17T09:44:57.865Z,-5.50
2022-12-17T09:50:34.229Z,-5.50
2022-12-17T09:58:58.371Z,-5.00
2022-12-17T10:04:35.785Z,-5.00
2022-12-17T10:07:21.584Z,-5.10
2022-12-17T10:10:08.939Z,-5.00
2022-12-17T10:12:54.954Z,-5.00
2022-12-17T10:15:42.229Z,-5.10
2022-12-17T10:18:31.141Z,-5.10
2022-12-17T10:21:18.213Z,-4.50
2022-12-17T10:24:03.994Z,-4.90
2022-12-17T10:26:51.213Z,-4.60
2022-12-17T10:29:42.561Z,-4.40
2022-12-17T10:32:40.926Z,-4.00
2022-12-17T10:35:28.000Z,-4.00
2022-12-17T10:38:13.747Z,-3.80
2022-12-17T10:41:13.942Z,-3.10
2022-12-17T10:44:00.290Z,-2.30
2022-12-17T10:46:47.507Z,-1.70
2022-12-17T10:49:37.336Z,-1.60
2022-12-17T10:52:25.324Z,-1.30
2022-12-17T10:55:20.389Z,-0.70
2022-12-17T11:00:55.357Z,0.20
2022-12-17T11:03:47.353Z,0.30
2022-12-17T11:12:31.047Z,-0.20
2022-12-17T11:15:21.372Z,-0.50
2022-12-17T11:18:11.395Z,-1.00
2022-12-17T11:23:54.857Z,-1.50
2022-12-17T11:26:43.605Z,-1.90
2022-12-17T11:29:31.143Z,-2.40
2022-12-17T11:32:32.449Z,-2.80
2022-12-17T11:43:52.461Z,-3.40
2022-12-17T11:46:45.844Z,-3.40
2022-12-17T11:52:27.665Z,-3.40
2022-12-17T11:58:11.239Z,-3.10
2022-12-17T12:01:03.506Z,-2.80
2022-12-17T12:09:36.017Z,-1.70
2022-12-17T12:12:26.903Z,-1.20
2022-12-17T12:18:11.733Z,0.20
2022-12-17T12:21:23.482Z,0.90
2022-12-17T12:29:56.625Z,2.50
2022-12-17T12:32:49.791Z,3.10
2022-12-17T12:38:24.491Z,3.30
2022-12-17T12:41:14.425Z,3.10
2022-12-17T12:44:04.018Z,2.90
2022-12-17T13:01:14.811Z,4.20
2022-12-17T13:04:10.753Z,4.50
2022-12-17T13:09:34.879Z,4.60
2022-12-17T13:12:42.318Z,4.30
2022-12-17T13:15:20.823Z,4.20
2022-12-17T13:23:18.336Z,4.00
2022-12-17T13:25:46.429Z,4.00
2022-12-17T13:28:27.757Z,4.20
2022-12-17T13:31:03.253Z,4.30
2022-12-17T13:36:13.356Z,4.40
2022-12-17T13:41:17.218Z,4.10
2022-12-17T13:53:57.477Z,3.90
2022-12-17T13:58:59.266Z,3.60
2022-12-17T14:01:30.527Z,3.30
2022-12-17T14:04:07.711Z,3.10
2022-12-17T14:14:32.910Z,2.50
2022-12-17T14:17:01.401Z,1.70
2022-12-17T14:19:30.600Z,1.30
2022-12-17T14:24:29.990Z,0.50
2022-12-17T14:32:00.194Z,-0.30
2022-12-17T14:34:29.940Z,-0.70
2022-12-17T14:36:59.605Z,-1.30
2022-12-17T14:39:31.214Z,-1.80
2022-12-17T14:42:29.527Z,-2.30
2022-12-17T14:44:59.651Z,-2.80
2022-12-17T14:50:04.402Z,-3.70
2022-12-17T14:55:31.729Z,-4.30
2022-12-17T14:58:24.140Z,-4.50
2022-12-17T15:08:22.886Z,-5.40
2022-12-17T15:10:52.369Z,-5.40
2022-12-17T15:20:47.689Z,-6.10
2022-12-17T15:25:47.200Z,-6.30
2022-12-17T15:30:46.807Z,-6.50
2022-12-17T15:33:15.266Z,-6.60
2022-12-17T15:40:41.248Z,-6.90
2022-12-17T15:43:12.692Z,-6.90
2022-12-17T15:45:45.377Z,-7.10
2022-12-17T15:50:43.125Z,-7.10
2022-12-17T15:53:11.441Z,-7.20
2022-12-17T15:55:40.207Z,-7.20
2022-12-17T16:00:37.334Z,-7.30
2022-12-17T16:05:35.397Z,-7.70
2022-12-17T16:10:31.962Z,-7.90
2022-12-17T16:12:59.997Z,-7.80
2022-12-17T16:15:28.172Z,-7.90
2022-12-17T16:20:26.159Z,-7.90
2022-12-17T16:35:16.682Z,-8.30
2022-12-17T16:40:14.460Z,-8.40
2022-12-17T16:47:39.825Z,-8.40
2022-12-17T16:55:06.979Z,-8.50
2022-12-17T16:57:35.045Z,-8.70
2022-12-17T17:00:04.442Z,-8.70
2022-12-17T17:02:32.689Z,-8.60
2022-12-17T17:05:00.932Z,-8.60
2022-12-17T17:12:27.517Z,-8.80
2022-12-17T17:14:55.650Z,-8.70
2022-12-17T17:17:55.392Z,-8.80
2022-12-17T17:22:41.583Z,-8.90
2022-12-17T17:25:09.887Z,-8.90
2022-12-17T17:27:39.321Z,-9.00
2022-12-17T17:30:08.455Z,-9.00
2022-12-17T17:32:36.535Z,-9.00
2022-12-17T17:37:33.664Z,-9.00
2022-12-17T17:42:30.128Z,-9.00
2022-12-17T17:44:59.493Z,-9.10
2022-12-17T17:47:30.043Z,-9.10
2022-12-17T17:49:58.052Z,-9.10
2022-12-17T17:52:26.178Z,-9.10
2022-12-17T17:54:54.237Z,-9.10
2022-12-17T17:57:22.317Z,-9.10
2022-12-17T18:02:21.354Z,-9.40
2022-12-17T18:07:26.359Z,-9.40
2022-12-17T18:15:18.771Z,-9.50
2022-12-17T18:17:52.000Z,-7.30
2022-12-17T18:20:20.464Z,-9.50
2022-12-17T18:25:18.866Z,-9.50
2022-12-17T18:32:44.383Z,-9.60
2022-12-17T18:35:13.842Z,-9.60
2022-12-17T18:40:11.327Z,-9.70
2022-12-17T18:45:25.107Z,-9.60
2022-12-17T18:50:22.943Z,-9.70
2022-12-17T18:55:19.592Z,-9.60
2022-12-17T18:57:47.652Z,-9.70
2022-12-17T19:00:16.065Z,-9.70
2022-12-17T19:07:43.385Z,-9.50
2022-12-17T19:10:11.777Z,-9.50
2022-12-17T19:12:39.850Z,-9.50
2022-12-17T19:15:09.063Z,-9.50
2022-12-17T19:20:06.158Z,-9.30
2022-12-17T19:22:34.245Z,-9.40
2022-12-17T19:27:32.999Z,-9.40
2022-12-17T19:30:01.084Z,-9.30
2022-12-17T19:32:29.153Z,-9.10
2022-12-17T19:34:57.252Z,-9.10
2022-12-17T19:39:53.655Z,-9.00
2022-12-17T19:42:25.706Z,-8.90
2022-12-17T19:44:54.980Z,-8.90
2022-12-17T19:47:23.866Z,-9.00
2022-12-17T19:49:52.094Z,-11.10
2022-12-17T19:52:20.401Z,-8.80
2022-12-17T19:57:18.177Z,-8.60
2022-12-17T19:59:47.649Z,-8.60
2022-12-17T20:04:45.347Z,-8.50
2022-12-17T20:12:12.759Z,-8.30
2022-12-17T20:17:10.762Z,-8.40
2022-12-17T20:19:38.858Z,-8.50
2022-12-17T20:24:37.169Z,-8.40
2022-12-17T20:27:05.808Z,-8.50
2022-12-17T20:29:33.884Z,-8.50
2022-12-17T20:32:01.975Z,-8.40
2022-12-17T20:34:31.801Z,-8.40
2022-12-17T20:36:59.911Z,-8.40
2022-12-17T20:41:57.466Z,-8.60
2022-12-17T20:44:25.564Z,-8.60
2022-12-17T20:46:53.676Z,-8.70
2022-12-17T20:51:51.559Z,-8.90
2022-12-17T20:54:19.816Z,-8.90
2022-12-17T20:56:47.905Z,-9.00
2022-12-17T21:01:49.028Z,-9.10
2022-12-17T21:04:19.626Z,-9.10
2022-12-17T21:06:49.191Z,-9.20
2022-12-17T21:11:48.984Z,-9.20
2022-12-17T21:14:18.404Z,-9.20
2022-12-17T21:16:47.140Z,-9.30
2022-12-17T21:19:17.809Z,-9.30
2022-12-17T21:26:45.383Z,-9.40
2022-12-17T21:36:43.059Z,-9.50
2022-12-17T21:39:13.191Z,-9.60
2022-12-17T21:41:44.489Z,-9.60
2022-12-17T21:44:15.420Z,-9.40
2022-12-17T21:46:50.268Z,-9.50
2022-12-17T21:49:19.102Z,-9.50
2022-12-17T21:51:47.433Z,-9.50
2022-12-17T21:54:19.683Z,-9.60
2022-12-17T21:56:48.878Z,-9.60
2022-12-17T21:59:18.316Z,-9.60
2022-12-17T22:01:46.547Z,-9.70
2022-12-17T22:04:14.791Z,-9.70
2022-12-17T22:06:52.373Z,-10.10
2022-12-17T22:09:55.692Z,-9.70
2022-12-17T22:14:59.959Z,-9.60
2022-12-17T22:17:28.504Z,-9.70
2022-12-17T22:19:56.618Z,-9.70
2022-12-17T22:22:24.777Z,-9.70
2022-12-17T22:24:52.804Z,-9.60
2022-12-17T22:27:20.938Z,-9.60
2022-12-17T22:30:02.866Z,-9.70
2022-12-17T22:35:18.198Z,-9.60
2022-12-17T22:44:31.720Z,-9.70
2022-12-17T22:44:42.608Z,-9.70
2022-12-17T22:46:23.526Z,-9.80
2022-12-17T22:48:53.000Z,-9.70
2022-12-17T22:51:26.089Z,-9.50
2022-12-17T22:54:02.021Z,-9.60
2022-12-17T22:56:47.017Z,-9.60
2022-12-17T22:59:19.842Z,-9.70
2022-12-17T23:01:48.026Z,-9.70
2022-12-17T23:04:17.907Z,-9.60
2022-12-17T23:06:47.095Z,-9.70
2022-12-17T23:09:18.202Z,-9.70
2022-12-17T23:11:46.982Z,-9.70
2022-12-17T23:14:15.722Z,-9.70
2022-12-17T23:19:12.569Z,-9.70
2022-12-17T23:21:42.149Z,-9.70
2022-12-17T23:24:10.534Z,-9.70
2022-12-17T23:26:39.840Z,-9.80
2022-12-17T23:29:13.614Z,-9.70
2022-12-17T23:31:44.218Z,-9.70
2022-12-17T23:34:12.390Z,-9.80
2022-12-17T23:36:41.843Z,-9.70
2022-12-17T23:41:38.361Z,-9.80
2022-12-17T23:44:06.436Z,-9.80
2022-12-17T23:46:34.655Z,-9.90
2022-12-17T23:49:05.311Z,-9.90
2022-12-17T23:51:33.859Z,-9.90
2022-12-17T23:54:03.354Z,-9.90
2022-12-17T23:56:31.507Z,-10.00
2022-12-17T23:59:01.535Z,-10.00
